sensor_id;sensor_type;location;lat;lon;timestamp;P1;durP1;ratioP1;P2;durP2;ratioP2
6825;SDS011;3451;52.476;13.316;2023-11-21T00:00:13;3.70;;;2.73;;
6825;SDS011;3451;52.476;13.316;2023-11-21T00:02:41;4.80;;;3.13;;
6825;SDS011;3451;52.476;13.316;2023-11-21T00:05:08;4.00;;;3.30;;
6825;SDS011;3451;52.476;13.316;2023-11-21T00:07:36;5.37;;;3.60;;
6825;SDS011;3451;52.476;13.316;2023-11-21T00:10:04;5.37;;;4.43;;
6825;SDS011;3451;52.476;13.316;2023-11-21T00:12:31;5.70;;;4.23;;
6825;SDS011;3451;52.476;13.316;2023-11-21T00:14:58;7.93;;;5.13;;
6825;SDS011;3451;52.476;13.316;2023-11-21T00:17:24;8.17;;;5.80;;
6825;SDS011;3451;52.476;13.316;2023-11-21T00:19:50;9.50;;;6.73;;
6825;SDS011;3451;52.476;13.316;2023-11-21T00:22:20;9.27;;;7.00;;
6825;SDS011;3451;52.476;13.316;2023-11-21T00:24:46;10.60;;;7.80;;
6825;SDS011;3451;52.476;13.316;2023-11-21T00:27:13;10.83;;;7.57;;
6825;SDS011;3451;52.476;13.316;2023-11-21T00:29:40;12.90;;;8.47;;
6825;SDS011;3451;52.476;13.316;2023-11-21T00:32:06;12.30;;;8.27;;
6825;SDS011;3451;52.476;13.316;2023-11-21T00:34:33;11.47;;;8.23;;
6825;SDS011;3451;52.476;13.316;2023-11-21T00:37:00;13.67;;;8.03;;
6825;SDS011;3451;52.476;13.316;2023-11-21T00:39:27;13.73;;;9.10;;
6825;SDS011;3451;52.476;13.316;2023-11-21T00:41:53;19.03;;;10.33;;
6825;SDS011;3451;52.476;13.316;2023-11-21T00:44:19;21.97;;;10.17;;
6825;SDS011;3451;52.476;13.316;2023-11-21T00:46:46;20.07;;;10.50;;
6825;SDS011;3451;52.476;13.316;2023-11-21T00:49:12;19.87;;;11.30;;
6825;SDS011;3451;52.476;13.316;2023-11-21T00:51:39;18.30;;;11.03;;
6825;SDS011;3451;52.476;13.316;2023-11-21T00:54:05;24.47;;;12.73;;
6825;SDS011;3451;52.476;13.316;2023-11-21T00:56:32;23.27;;;12.30;;
6825;SDS011;3451;52.476;13.316;2023-11-21T00:59:00;22.57;;;12.20;;
6825;SDS011;3451;52.476;13.316;2023-11-21T01:01:27;24.77;;;12.93;;
6825;SDS011;3451;52.476;13.316;2023-11-21T01:03:53;24.93;;;13.73;;
6825;SDS011;3451;52.476;13.316;2023-11-21T01:06:20;26.47;;;14.27;;
6825;SDS011;3451;52.476;13.316;2023-11-21T01:08:46;28.23;;;13.60;;
6825;SDS011;3451;52.476;13.316;2023-11-21T01:11:13;28.03;;;13.73;;
6825;SDS011;3451;52.476;13.316;2023-11-21T01:13:39;33.20;;;15.20;;
6825;SDS011;3451;52.476;13.316;2023-11-21T01:16:06;38.20;;;16.07;;
6825;SDS011;3451;52.476;13.316;2023-11-21T01:18:33;31.73;;;16.47;;
6825;SDS011;3451;52.476;13.316;2023-11-21T01:20:59;36.57;;;17.07;;
6825;SDS011;3451;52.476;13.316;2023-11-21T01:23:28;34.37;;;16.67;;
6825;SDS011;3451;52.476;13.316;2023-11-21T01:25:55;35.17;;;17.57;;
6825;SDS011;3451;52.476;13.316;2023-11-21T01:28:22;38.17;;;18.47;;
6825;SDS011;3451;52.476;13.316;2023-11-21T01:30:48;39.37;;;18.47;;
6825;SDS011;3451;52.476;13.316;2023-11-21T01:33:14;42.13;;;18.33;;
6825;SDS011;3451;52.476;13.316;2023-11-21T01:35:42;35.83;;;17.23;;
6825;SDS011;3451;52.476;13.316;2023-11-21T01:38:08;43.50;;;17.90;;
6825;SDS011;3451;52.476;13.316;2023-11-21T01:40:35;39.80;;;17.50;;
6825;SDS011;3451;52.476;13.316;2023-11-21T01:43:01;37.30;;;17.73;;
6825;SDS011;3451;52.476;13.316;2023-11-21T01:45:30;34.30;;;16.60;;
6825;SDS011;3451;52.476;13.316;2023-11-21T01:48:00;37.27;;;16.80;;
6825;SDS011;3451;52.476;13.316;2023-11-21T01:50:27;35.70;;;16.77;;
6825;SDS011;3451;52.476;13.316;2023-11-21T01:52:54;41.40;;;17.03;;
6825;SDS011;3451;52.476;13.316;2023-11-21T01:55:21;39.03;;;16.63;;
6825;SDS011;3451;52.476;13.316;2023-11-21T01:57:54;48.00;;;18.90;;
6825;SDS011;3451;52.476;13.316;2023-11-21T02:00:20;43.97;;;18.70;;
6825;SDS011;3451;52.476;13.316;2023-11-21T02:02:47;40.17;;;17.07;;
6825;SDS011;3451;52.476;13.316;2023-11-21T02:05:14;43.33;;;17.97;;
6825;SDS011;3451;52.476;13.316;2023-11-21T02:07:41;47.33;;;17.47;;
6825;SDS011;3451;52.476;13.316;2023-11-21T02:10:09;42.20;;;18.10;;
6825;SDS011;3451;52.476;13.316;2023-11-21T02:12:35;45.40;;;18.20;;
6825;SDS011;3451;52.476;13.316;2023-11-21T02:15:02;43.87;;;18.13;;
6825;SDS011;3451;52.476;13.316;2023-11-21T02:17:31;34.83;;;15.27;;
6825;SDS011;3451;52.476;13.316;2023-11-21T02:19:58;34.53;;;15.10;;
6825;SDS011;3451;52.476;13.316;2023-11-21T02:22:26;35.20;;;14.40;;
6825;SDS011;3451;52.476;13.316;2023-11-21T02:24:55;31.67;;;13.33;;
6825;SDS011;3451;52.476;13.316;2023-11-21T02:27:21;33.20;;;13.43;;
6825;SDS011;3451;52.476;13.316;2023-11-21T02:29:49;27.27;;;11.67;;
6825;SDS011;3451;52.476;13.316;2023-11-21T02:32:16;24.67;;;11.83;;
6825;SDS011;3451;52.476;13.316;2023-11-21T02:34:45;23.00;;;10.60;;
6825;SDS011;3451;52.476;13.316;2023-11-21T02:37:11;22.87;;;10.83;;
6825;SDS011;3451;52.476;13.316;2023-11-21T02:39:38;18.67;;;9.40;;
6825;SDS011;3451;52.476;13.316;2023-11-21T02:42:04;20.80;;;9.50;;
6825;SDS011;3451;52.476;13.316;2023-11-21T02:44:31;17.77;;;9.23;;
6825;SDS011;3451;52.476;13.316;2023-11-21T02:46:57;15.63;;;8.33;;
6825;SDS011;3451;52.476;13.316;2023-11-21T02:49:24;14.90;;;8.23;;
6825;SDS011;3451;52.476;13.316;2023-11-21T02:51:50;12.80;;;7.00;;
6825;SDS011;3451;52.476;13.316;2023-11-21T02:54:16;13.57;;;8.17;;
6825;SDS011;3451;52.476;13.316;2023-11-21T02:56:45;11.50;;;6.87;;
6825;SDS011;3451;52.476;13.316;2023-11-21T02:59:12;14.83;;;7.83;;
6825;SDS011;3451;52.476;13.316;2023-11-21T03:01:38;13.80;;;7.23;;
6825;SDS011;3451;52.476;13.316;2023-11-21T03:04:04;15.33;;;8.20;;
6825;SDS011;3451;52.476;13.316;2023-11-21T03:06:31;15.17;;;8.50;;
6825;SDS011;3451;52.476;13.316;2023-11-21T03:08:57;15.37;;;8.17;;
6825;SDS011;3451;52.476;13.316;2023-11-21T03:11:24;14.73;;;9.07;;
6825;SDS011;3451;52.476;13.316;2023-11-21T03:13:50;13.87;;;8.17;;
6825;SDS011;3451;52.476;13.316;2023-11-21T03:16:16;12.47;;;7.80;;
6825;SDS011;3451;52.476;13.316;2023-11-21T03:18:43;11.90;;;7.90;;
6825;SDS011;3451;52.476;13.316;2023-11-21T03:21:11;15.37;;;8.50;;
6825;SDS011;3451;52.476;13.316;2023-11-21T03:23:38;10.60;;;7.43;;
6825;SDS011;3451;52.476;13.316;2023-11-21T03:26:04;12.93;;;8.77;;
6825;SDS011;3451;52.476;13.316;2023-11-21T03:28:30;12.43;;;7.37;;
6825;SDS011;3451;52.476;13.316;2023-11-21T03:30:57;14.37;;;8.50;;
6825;SDS011;3451;52.476;13.316;2023-11-21T03:33:23;12.47;;;7.47;;
6825;SDS011;3451;52.476;13.316;2023-11-21T03:35:49;11.90;;;8.10;;
6825;SDS011;3451;52.476;13.316;2023-11-21T03:38:16;14.50;;;8.43;;
6825;SDS011;3451;52.476;13.316;2023-11-21T03:40:42;13.13;;;8.17;;
6825;SDS011;3451;52.476;13.316;2023-11-21T03:43:08;11.47;;;8.30;;
6825;SDS011;3451;52.476;13.316;2023-11-21T03:45:35;12.67;;;8.40;;
6825;SDS011;3451;52.476;13.316;2023-11-21T03:48:01;13.60;;;8.43;;
6825;SDS011;3451;52.476;13.316;2023-11-21T03:50:28;18.27;;;8.10;;
6825;SDS011;3451;52.476;13.316;2023-11-21T03:52:55;14.33;;;8.80;;
6825;SDS011;3451;52.476;13.316;2023-11-21T03:55:21;12.80;;;8.80;;
6825;SDS011;3451;52.476;13.316;2023-11-21T03:57:49;12.57;;;7.80;;
6825;SDS011;3451;52.476;13.316;2023-11-21T04:00:15;13.77;;;8.50;;
6825;SDS011;3451;52.476;13.316;2023-11-21T04:02:42;13.63;;;8.17;;
6825;SDS011;3451;52.476;13.316;2023-11-21T04:05:08;12.73;;;8.60;;
6825;SDS011;3451;52.476;13.316;2023-11-21T04:07:35;12.90;;;9.00;;
6825;SDS011;3451;52.476;13.316;2023-11-21T04:10:04;12.23;;;8.20;;
6825;SDS011;3451;52.476;13.316;2023-11-21T04:12:33;13.50;;;8.37;;
6825;SDS011;3451;52.476;13.316;2023-11-21T04:14:59;11.83;;;8.03;;
6825;SDS011;3451;52.476;13.316;2023-11-21T04:17:26;13.93;;;9.17;;
6825;SDS011;3451;52.476;13.316;2023-11-21T04:19:52;14.83;;;8.97;;
6825;SDS011;3451;52.476;13.316;2023-11-21T04:22:18;14.07;;;9.30;;
6825;SDS011;3451;52.476;13.316;2023-11-21T04:24:45;12.43;;;8.30;;
6825;SDS011;3451;52.476;13.316;2023-11-21T04:27:11;12.93;;;8.27;;
6825;SDS011;3451;52.476;13.316;2023-11-21T04:29:39;12.73;;;7.50;;
6825;SDS011;3451;52.476;13.316;2023-11-21T04:32:05;13.83;;;9.00;;
6825;SDS011;3451;52.476;13.316;2023-11-21T04:34:32;14.63;;;8.53;;
6825;SDS011;3451;52.476;13.316;2023-11-21T04:36:58;13.70;;;8.30;;
6825;SDS011;3451;52.476;13.316;2023-11-21T04:39:25;13.07;;;8.37;;
6825;SDS011;3451;52.476;13.316;2023-11-21T04:41:52;14.70;;;9.20;;
6825;SDS011;3451;52.476;13.316;2023-11-21T04:44:18;16.37;;;8.87;;
6825;SDS011;3451;52.476;13.316;2023-11-21T04:46:44;13.10;;;8.97;;
6825;SDS011;3451;52.476;13.316;2023-11-21T04:49:11;14.10;;;8.83;;
6825;SDS011;3451;52.476;13.316;2023-11-21T04:51:37;13.03;;;9.13;;
6825;SDS011;3451;52.476;13.316;2023-11-21T04:54:03;15.27;;;8.87;;
6825;SDS011;3451;52.476;13.316;2023-11-21T04:56:31;13.70;;;8.87;;
6825;SDS011;3451;52.476;13.316;2023-11-21T04:58:58;14.37;;;8.80;;
6825;SDS011;3451;52.476;13.316;2023-11-21T05:01:24;17.37;;;10.33;;
6825;SDS011;3451;52.476;13.316;2023-11-21T05:03:50;16.03;;;10.23;;
6825;SDS011;3451;52.476;13.316;2023-11-21T05:06:18;15.83;;;9.80;;
6825;SDS011;3451;52.476;13.316;2023-11-21T05:08:45;14.10;;;9.03;;
6825;SDS011;3451;52.476;13.316;2023-11-21T05:11:11;14.00;;;8.87;;
6825;SDS011;3451;52.476;13.316;2023-11-21T05:13:37;14.47;;;8.63;;
6825;SDS011;3451;52.476;13.316;2023-11-21T05:16:05;13.87;;;8.53;;
6825;SDS011;3451;52.476;13.316;2023-11-21T05:18:33;11.90;;;7.87;;
6825;SDS011;3451;52.476;13.316;2023-11-21T05:21:01;14.17;;;8.53;;
6825;SDS011;3451;52.476;13.316;2023-11-21T05:23:28;10.27;;;7.30;;
6825;SDS011;3451;52.476;13.316;2023-11-21T05:25:54;12.30;;;7.87;;
6825;SDS011;3451;52.476;13.316;2023-11-21T05:28:22;12.37;;;7.40;;
6825;SDS011;3451;52.476;13.316;2023-11-21T05:30:48;9.67;;;7.27;;
6825;SDS011;3451;52.476;13.316;2023-11-21T05:33:23;11.13;;;7.63;;
6825;SDS011;3451;52.476;13.316;2023-11-21T05:35:49;11.03;;;7.87;;
6825;SDS011;3451;52.476;13.316;2023-11-21T05:38:20;12.30;;;7.80;;
6825;SDS011;3451;52.476;13.316;2023-11-21T05:40:48;11.87;;;7.83;;
6825;SDS011;3451;52.476;13.316;2023-11-21T05:43:14;11.07;;;7.43;;
6825;SDS011;3451;52.476;13.316;2023-11-21T05:45:41;13.60;;;7.87;;
6825;SDS011;3451;52.476;13.316;2023-11-21T05:48:07;11.77;;;6.93;;
6825;SDS011;3451;52.476;13.316;2023-11-21T05:50:34;11.90;;;7.73;;
6825;SDS011;3451;52.476;13.316;2023-11-21T05:53:00;11.47;;;7.73;;
6825;SDS011;3451;52.476;13.316;2023-11-21T05:55:27;11.57;;;7.67;;
6825;SDS011;3451;52.476;13.316;2023-11-21T05:57:53;10.20;;;7.03;;
6825;SDS011;3451;52.476;13.316;2023-11-21T06:00:20;12.47;;;7.30;;
6825;SDS011;3451;52.476;13.316;2023-11-21T06:02:48;12.60;;;8.50;;
6825;SDS011;3451;52.476;13.316;2023-11-21T06:05:17;9.60;;;6.90;;
6825;SDS011;3451;52.476;13.316;2023-11-21T06:07:44;11.17;;;6.87;;
6825;SDS011;3451;52.476;13.316;2023-11-21T06:10:11;13.53;;;7.23;;
6825;SDS011;3451;52.476;13.316;2023-11-21T06:12:38;11.53;;;7.37;;
6825;SDS011;3451;52.476;13.316;2023-11-21T06:15:06;10.90;;;7.00;;
6825;SDS011;3451;52.476;13.316;2023-11-21T06:17:35;12.00;;;7.10;;
6825;SDS011;3451;52.476;13.316;2023-11-21T06:20:06;12.70;;;7.17;;
6825;SDS011;3451;52.476;13.316;2023-11-21T06:22:36;10.03;;;6.17;;
6825;SDS011;3451;52.476;13.316;2023-11-21T06:25:02;9.63;;;6.20;;
6825;SDS011;3451;52.476;13.316;2023-11-21T06:27:32;9.10;;;5.80;;
6825;SDS011;3451;52.476;13.316;2023-11-21T06:29:58;12.10;;;5.77;;
6825;SDS011;3451;52.476;13.316;2023-11-21T06:32:24;10.07;;;5.83;;
6825;SDS011;3451;52.476;13.316;2023-11-21T06:34:52;9.97;;;6.40;;
6825;SDS011;3451;52.476;13.316;2023-11-21T06:37:21;10.93;;;6.73;;
6825;SDS011;3451;52.476;13.316;2023-11-21T06:39:50;8.47;;;6.20;;
6825;SDS011;3451;52.476;13.316;2023-11-21T06:42:18;8.83;;;5.67;;
6825;SDS011;3451;52.476;13.316;2023-11-21T06:44:48;8.00;;;5.47;;
6825;SDS011;3451;52.476;13.316;2023-11-21T06:47:15;8.63;;;6.00;;
6825;SDS011;3451;52.476;13.316;2023-11-21T06:49:42;8.70;;;5.00;;
6825;SDS011;3451;52.476;13.316;2023-11-21T06:52:09;6.97;;;4.50;;
6825;SDS011;3451;52.476;13.316;2023-11-21T06:54:36;8.13;;;5.07;;
6825;SDS011;3451;52.476;13.316;2023-11-21T06:57:03;7.53;;;5.07;;
6825;SDS011;3451;52.476;13.316;2023-11-21T06:59:29;6.50;;;4.67;;
6825;SDS011;3451;52.476;13.316;2023-11-21T07:01:56;8.40;;;5.17;;
6825;SDS011;3451;52.476;13.316;2023-11-21T07:04:22;8.37;;;5.47;;
6825;SDS011;3451;52.476;13.316;2023-11-21T07:06:48;8.73;;;4.87;;
6825;SDS011;3451;52.476;13.316;2023-11-21T07:09:15;7.97;;;5.43;;
6825;SDS011;3451;52.476;13.316;2023-11-21T07:11:41;9.70;;;5.50;;
6825;SDS011;3451;52.476;13.316;2023-11-21T07:14:09;7.47;;;5.10;;
6825;SDS011;3451;52.476;13.316;2023-11-21T07:16:36;7.93;;;5.53;;
6825;SDS011;3451;52.476;13.316;2023-11-21T07:19:04;8.33;;;5.40;;
6825;SDS011;3451;52.476;13.316;2023-11-21T07:21:35;10.47;;;5.53;;
6825;SDS011;3451;52.476;13.316;2023-11-21T07:24:02;8.97;;;5.33;;
6825;SDS011;3451;52.476;13.316;2023-11-21T07:26:29;10.07;;;5.57;;
6825;SDS011;3451;52.476;13.316;2023-11-21T07:28:56;13.63;;;5.73;;
6825;SDS011;3451;52.476;13.316;2023-11-21T07:31:22;8.07;;;5.33;;
6825;SDS011;3451;52.476;13.316;2023-11-21T07:33:50;8.47;;;5.20;;
6825;SDS011;3451;52.476;13.316;2023-11-21T07:36:18;8.00;;;5.57;;
6825;SDS011;3451;52.476;13.316;2023-11-21T07:38:45;9.10;;;5.63;;
6825;SDS011;3451;52.476;13.316;2023-11-21T07:41:11;7.90;;;5.67;;
6825;SDS011;3451;52.476;13.316;2023-11-21T07:43:56;8.43;;;5.47;;
6825;SDS011;3451;52.476;13.316;2023-11-21T07:46:22;8.07;;;5.50;;
6825;SDS011;3451;52.476;13.316;2023-11-21T07:48:50;8.87;;;5.70;;
6825;SDS011;3451;52.476;13.316;2023-11-21T07:51:18;7.77;;;5.30;;
6825;SDS011;3451;52.476;13.316;2023-11-21T07:53:45;7.33;;;5.20;;
6825;SDS011;3451;52.476;13.316;2023-11-21T07:56:11;7.67;;;5.10;;
6825;SDS011;3451;52.476;13.316;2023-11-21T07:58:39;9.30;;;5.40;;
6825;SDS011;3451;52.476;13.316;2023-11-21T08:01:05;8.33;;;5.40;;
6825;SDS011;3451;52.476;13.316;2023-11-21T08:03:31;8.17;;;5.20;;
6825;SDS011;3451;52.476;13.316;2023-11-21T08:05:58;6.83;;;5.13;;
6825;SDS011;3451;52.476;13.316;2023-11-21T08:08:25;7.70;;;5.47;;
6825;SDS011;3451;52.476;13.316;2023-11-21T08:10:51;7.53;;;5.17;;
6825;SDS011;3451;52.476;13.316;2023-11-21T08:13:24;14.90;;;5.20;;
6825;SDS011;3451;52.476;13.316;2023-11-21T08:15:55;7.57;;;5.37;;
6825;SDS011;3451;52.476;13.316;2023-11-21T08:18:22;8.50;;;5.27;;
6825;SDS011;3451;52.476;13.316;2023-11-21T08:20:49;8.20;;;4.60;;
6825;SDS011;3451;52.476;13.316;2023-11-21T08:23:15;8.20;;;5.27;;
6825;SDS011;3451;52.476;13.316;2023-11-21T08:25:43;7.83;;;5.43;;
6825;SDS011;3451;52.476;13.316;2023-11-21T08:28:09;6.33;;;4.73;;
6825;SDS011;3451;52.476;13.316;2023-11-21T08:30:36;8.10;;;5.27;;
6825;SDS011;3451;52.476;13.316;2023-11-21T08:33:02;7.37;;;4.80;;
6825;SDS011;3451;52.476;13.316;2023-11-21T08:35:30;6.33;;;4.77;;
6825;SDS011;3451;52.476;13.316;2023-11-21T08:37:57;7.97;;;5.00;;
6825;SDS011;3451;52.476;13.316;2023-11-21T08:40:23;6.00;;;4.27;;
6825;SDS011;3451;52.476;13.316;2023-11-21T08:42:51;6.27;;;4.40;;
6825;SDS011;3451;52.476;13.316;2023-11-21T08:45:21;7.00;;;4.27;;
6825;SDS011;3451;52.476;13.316;2023-11-21T08:47:48;6.83;;;4.50;;
6825;SDS011;3451;52.476;13.316;2023-11-21T08:50:14;8.17;;;4.63;;
6825;SDS011;3451;52.476;13.316;2023-11-21T08:52:41;7.47;;;4.43;;
6825;SDS011;3451;52.476;13.316;2023-11-21T08:55:08;7.03;;;4.57;;
6825;SDS011;3451;52.476;13.316;2023-11-21T08:57:35;7.80;;;4.60;;
6825;SDS011;3451;52.476;13.316;2023-11-21T09:00:05;8.20;;;4.70;;
6825;SDS011;3451;52.476;13.316;2023-11-21T09:02:35;9.03;;;4.80;;
6825;SDS011;3451;52.476;13.316;2023-11-21T09:05:01;8.23;;;4.83;;
6825;SDS011;3451;52.476;13.316;2023-11-21T09:07:29;7.93;;;4.30;;
6825;SDS011;3451;52.476;13.316;2023-11-21T09:09:55;9.20;;;4.13;;
6825;SDS011;3451;52.476;13.316;2023-11-21T09:12:22;8.80;;;4.80;;
6825;SDS011;3451;52.476;13.316;2023-11-21T09:14:48;11.13;;;4.93;;
6825;SDS011;3451;52.476;13.316;2023-11-21T09:17:16;9.50;;;5.73;;
6825;SDS011;3451;52.476;13.316;2023-11-21T09:19:42;8.63;;;4.73;;
6825;SDS011;3451;52.476;13.316;2023-11-21T09:22:16;9.00;;;4.80;;
6825;SDS011;3451;52.476;13.316;2023-11-21T09:24:42;9.43;;;5.93;;
6825;SDS011;3451;52.476;13.316;2023-11-21T09:27:09;8.87;;;4.80;;
6825;SDS011;3451;52.476;13.316;2023-11-21T09:29:35;8.90;;;4.93;;
6825;SDS011;3451;52.476;13.316;2023-11-21T09:32:05;11.93;;;5.10;;
6825;SDS011;3451;52.476;13.316;2023-11-21T09:34:35;9.60;;;5.27;;
6825;SDS011;3451;52.476;13.316;2023-11-21T09:37:05;9.23;;;5.50;;
6825;SDS011;3451;52.476;13.316;2023-11-21T09:39:32;13.10;;;5.43;;
6825;SDS011;3451;52.476;13.316;2023-11-21T09:42:15;11.77;;;5.43;;
6825;SDS011;3451;52.476;13.316;2023-11-21T09:47:16;9.53;;;4.90;;
6825;SDS011;3451;52.476;13.316;2023-11-21T09:49:52;12.87;;;5.40;;
6825;SDS011;3451;52.476;13.316;2023-11-21T09:52:27;10.43;;;5.33;;
6825;SDS011;3451;52.476;13.316;2023-11-21T09:54:54;8.90;;;5.00;;
6825;SDS011;3451;52.476;13.316;2023-11-21T09:57:23;11.07;;;5.63;;
6825;SDS011;3451;52.476;13.316;2023-11-21T09:59:51;12.73;;;5.83;;
6825;SDS011;3451;52.476;13.316;2023-11-21T10:02:18;12.70;;;5.03;;
6825;SDS011;3451;52.476;13.316;2023-11-21T10:04:46;12.87;;;6.00;;
6825;SDS011;3451;52.476;13.316;2023-11-21T10:07:13;13.00;;;5.83;;
6825;SDS011;3451;52.476;13.316;2023-11-21T10:14:59;14.10;;;6.53;;
6825;SDS011;3451;52.476;13.316;2023-11-21T10:17:26;12.13;;;6.43;;
6825;SDS011;3451;52.476;13.316;2023-11-21T10:19:56;12.37;;;6.23;;
6825;SDS011;3451;52.476;13.316;2023-11-21T10:22:23;11.40;;;5.97;;
6825;SDS011;3451;52.476;13.316;2023-11-21T10:24:52;13.30;;;6.40;;
6825;SDS011;3451;52.476;13.316;2023-11-21T10:27:19;14.30;;;6.30;;
6825;SDS011;3451;52.476;13.316;2023-11-21T10:29:46;11.23;;;5.70;;
6825;SDS011;3451;52.476;13.316;2023-11-21T10:32:12;10.77;;;5.30;;
6825;SDS011;3451;52.476;13.316;2023-11-21T10:34:39;13.57;;;6.13;;
6825;SDS011;3451;52.476;13.316;2023-11-21T10:37:10;13.10;;;6.33;;
6825;SDS011;3451;52.476;13.316;2023-11-21T10:39:38;16.43;;;7.03;;
6825;SDS011;3451;52.476;13.316;2023-11-21T10:42:07;15.43;;;7.67;;
6825;SDS011;3451;52.476;13.316;2023-11-21T10:44:34;16.53;;;7.63;;
6825;SDS011;3451;52.476;13.316;2023-11-21T10:47:00;13.57;;;6.80;;
6825;SDS011;3451;52.476;13.316;2023-11-21T10:49:27;14.37;;;7.17;;
6825;SDS011;3451;52.476;13.316;2023-11-21T10:51:54;13.37;;;6.80;;
6825;SDS011;3451;52.476;13.316;2023-11-21T10:54:25;12.47;;;5.40;;
6825;SDS011;3451;52.476;13.316;2023-11-21T10:56:53;11.10;;;5.63;;
6825;SDS011;3451;52.476;13.316;2023-11-21T10:59:22;10.37;;;5.50;;
6825;SDS011;3451;52.476;13.316;2023-11-21T11:01:51;7.27;;;4.37;;
6825;SDS011;3451;52.476;13.316;2023-11-21T11:04:19;9.20;;;4.63;;
6825;SDS011;3451;52.476;13.316;2023-11-21T11:06:48;13.57;;;6.10;;
6825;SDS011;3451;52.476;13.316;2023-11-21T11:09:17;8.57;;;5.07;;
6825;SDS011;3451;52.476;13.316;2023-11-21T11:11:45;10.17;;;4.93;;
6825;SDS011;3451;52.476;13.316;2023-11-21T11:14:12;12.73;;;5.53;;
6825;SDS011;3451;52.476;13.316;2023-11-21T11:16:39;7.60;;;5.00;;
6825;SDS011;3451;52.476;13.316;2023-11-21T11:19:07;9.30;;;4.57;;
6825;SDS011;3451;52.476;13.316;2023-11-21T11:24:23;5.33;;;3.43;;
6825;SDS011;3451;52.476;13.316;2023-11-21T11:29:48;5.07;;;3.10;;
6825;SDS011;3451;52.476;13.316;2023-11-21T11:32:34;3.83;;;3.23;;
6825;SDS011;3451;52.476;13.316;2023-11-21T11:35:10;5.83;;;3.00;;
6825;SDS011;3451;52.476;13.316;2023-11-21T11:37:43;4.97;;;3.17;;
6825;SDS011;3451;52.476;13.316;2023-11-21T11:40:12;4.43;;;3.50;;
6825;SDS011;3451;52.476;13.316;2023-11-21T11:42:39;6.17;;;3.40;;
6825;SDS011;3451;52.476;13.316;2023-11-21T11:45:18;4.13;;;3.33;;
6825;SDS011;3451;52.476;13.316;2023-11-21T11:47:48;6.50;;;3.50;;
6825;SDS011;3451;52.476;13.316;2023-11-21T11:50:14;4.50;;;3.27;;
6825;SDS011;3451;52.476;13.316;2023-11-21T11:52:45;4.93;;;3.57;;
6825;SDS011;3451;52.476;13.316;2023-11-21T11:55:13;5.03;;;3.50;;
6825;SDS011;3451;52.476;13.316;2023-11-21T11:57:40;4.50;;;3.27;;
6825;SDS011;3451;52.476;13.316;2023-11-21T12:00:07;5.80;;;3.60;;
6825;SDS011;3451;52.476;13.316;2023-11-21T12:02:38;4.80;;;3.33;;
6825;SDS011;3451;52.476;13.316;2023-11-21T12:05:09;4.87;;;3.40;;
6825;SDS011;3451;52.476;13.316;2023-11-21T12:07:43;6.30;;;3.50;;
6825;SDS011;3451;52.476;13.316;2023-11-21T12:10:14;5.93;;;3.70;;
6825;SDS011;3451;52.476;13.316;2023-11-21T12:12:44;6.13;;;3.77;;
6825;SDS011;3451;52.476;13.316;2023-11-21T12:15:11;6.57;;;3.50;;
6825;SDS011;3451;52.476;13.316;2023-11-21T12:17:38;5.97;;;3.33;;
6825;SDS011;3451;52.476;13.316;2023-11-21T12:20:05;5.00;;;3.23;;
6825;SDS011;3451;52.476;13.316;2023-11-21T12:22:32;5.10;;;3.50;;
6825;SDS011;3451;52.476;13.316;2023-11-21T12:24:59;3.90;;;2.83;;
6825;SDS011;3451;52.476;13.316;2023-11-21T12:27:27;5.40;;;3.67;;
6825;SDS011;3451;52.476;13.316;2023-11-21T12:29:53;6.23;;;3.40;;
6825;SDS011;3451;52.476;13.316;2023-11-21T12:32:22;5.73;;;3.43;;
6825;SDS011;3451;52.476;13.316;2023-11-21T12:34:48;7.43;;;3.80;;
6825;SDS011;3451;52.476;13.316;2023-11-21T12:37:15;6.07;;;4.40;;
6825;SDS011;3451;52.476;13.316;2023-11-21T12:39:42;5.20;;;3.60;;
6825;SDS011;3451;52.476;13.316;2023-11-21T12:42:09;5.20;;;3.90;;
6825;SDS011;3451;52.476;13.316;2023-11-21T12:44:36;6.60;;;4.07;;
6825;SDS011;3451;52.476;13.316;2023-11-21T12:47:03;8.40;;;3.80;;
6825;SDS011;3451;52.476;13.316;2023-11-21T12:49:30;6.40;;;4.00;;
6825;SDS011;3451;52.476;13.316;2023-11-21T12:51:58;4.27;;;3.60;;
6825;SDS011;3451;52.476;13.316;2023-11-21T12:54:25;5.63;;;3.63;;
6825;SDS011;3451;52.476;13.316;2023-11-21T12:56:51;5.07;;;3.40;;
6825;SDS011;3451;52.476;13.316;2023-11-21T12:59:18;6.67;;;3.40;;
6825;SDS011;3451;52.476;13.316;2023-11-21T13:01:46;6.50;;;3.80;;
6825;SDS011;3451;52.476;13.316;2023-11-21T13:04:13;6.63;;;4.50;;
6825;SDS011;3451;52.476;13.316;2023-11-21T13:06:40;4.67;;;3.50;;
6825;SDS011;3451;52.476;13.316;2023-11-21T13:09:07;7.40;;;3.97;;
6825;SDS011;3451;52.476;13.316;2023-11-21T13:11:36;4.97;;;3.43;;
6825;SDS011;3451;52.476;13.316;2023-11-21T13:14:03;4.93;;;3.90;;
6825;SDS011;3451;52.476;13.316;2023-11-21T13:16:30;6.37;;;4.30;;
6825;SDS011;3451;52.476;13.316;2023-11-21T13:18:58;6.93;;;4.10;;
6825;SDS011;3451;52.476;13.316;2023-11-21T13:21:24;7.07;;;4.57;;
6825;SDS011;3451;52.476;13.316;2023-11-21T13:23:50;9.23;;;4.50;;
6825;SDS011;3451;52.476;13.316;2023-11-21T13:26:19;7.67;;;5.07;;
6825;SDS011;3451;52.476;13.316;2023-11-21T13:28:46;9.57;;;5.40;;
6825;SDS011;3451;52.476;13.316;2023-11-21T13:31:13;8.33;;;5.27;;
6825;SDS011;3451;52.476;13.316;2023-11-21T13:33:52;8.03;;;5.03;;
6825;SDS011;3451;52.476;13.316;2023-11-21T13:36:23;8.70;;;5.87;;
6825;SDS011;3451;52.476;13.316;2023-11-21T13:38:50;9.80;;;6.17;;
6825;SDS011;3451;52.476;13.316;2023-11-21T13:41:16;11.50;;;6.40;;
6825;SDS011;3451;52.476;13.316;2023-11-21T13:43:44;10.17;;;6.70;;
6825;SDS011;3451;52.476;13.316;2023-11-21T13:46:19;12.30;;;7.17;;
6825;SDS011;3451;52.476;13.316;2023-11-21T13:48:49;11.80;;;7.50;;
6825;SDS011;3451;52.476;13.316;2023-11-21T13:51:22;13.10;;;7.33;;
6825;SDS011;3451;52.476;13.316;2023-11-21T13:53:57;11.80;;;6.87;;
6825;SDS011;3451;52.476;13.316;2023-11-21T13:56:23;13.10;;;6.97;;
6825;SDS011;3451;52.476;13.316;2023-11-21T13:58:50;11.33;;;6.93;;
6825;SDS011;3451;52.476;13.316;2023-11-21T14:01:18;12.83;;;7.83;;
6825;SDS011;3451;52.476;13.316;2023-11-21T14:04:09;12.20;;;7.33;;
6825;SDS011;3451;52.476;13.316;2023-11-21T14:06:46;15.97;;;8.07;;
6825;SDS011;3451;52.476;13.316;2023-11-21T14:09:19;15.90;;;8.87;;
6825;SDS011;3451;52.476;13.316;2023-11-21T14:11:50;14.63;;;8.53;;
6825;SDS011;3451;52.476;13.316;2023-11-21T14:14:18;17.30;;;9.73;;
6825;SDS011;3451;52.476;13.316;2023-11-21T14:16:45;16.87;;;9.47;;
6825;SDS011;3451;52.476;13.316;2023-11-21T14:19:11;20.53;;;10.37;;
6825;SDS011;3451;52.476;13.316;2023-11-21T14:21:44;20.37;;;11.53;;
6825;SDS011;3451;52.476;13.316;2023-11-21T14:24:11;24.60;;;12.40;;
6825;SDS011;3451;52.476;13.316;2023-11-21T14:26:43;21.80;;;12.40;;
6825;SDS011;3451;52.476;13.316;2023-11-21T14:29:12;22.87;;;12.10;;
6825;SDS011;3451;52.476;13.316;2023-11-21T14:31:40;21.73;;;12.10;;
6825;SDS011;3451;52.476;13.316;2023-11-21T14:34:07;18.50;;;10.63;;
6825;SDS011;3451;52.476;13.316;2023-11-21T14:36:34;15.90;;;10.07;;
6825;SDS011;3451;52.476;13.316;2023-11-21T14:39:00;20.63;;;11.33;;
6825;SDS011;3451;52.476;13.316;2023-11-21T14:41:26;18.07;;;10.57;;
6825;SDS011;3451;52.476;13.316;2023-11-21T14:43:55;16.77;;;10.83;;
6825;SDS011;3451;52.476;13.316;2023-11-21T14:46:23;19.47;;;10.90;;
6825;SDS011;3451;52.476;13.316;2023-11-21T14:48:50;18.93;;;10.83;;
6825;SDS011;3451;52.476;13.316;2023-11-21T14:51:28;17.67;;;11.03;;
6825;SDS011;3451;52.476;13.316;2023-11-21T14:53:58;16.97;;;11.43;;
6825;SDS011;3451;52.476;13.316;2023-11-21T14:56:33;16.50;;;10.80;;
6825;SDS011;3451;52.476;13.316;2023-11-21T14:59:01;17.10;;;10.73;;
6825;SDS011;3451;52.476;13.316;2023-11-21T15:01:38;18.30;;;11.70;;
6825;SDS011;3451;52.476;13.316;2023-11-21T15:04:19;17.53;;;11.53;;
6825;SDS011;3451;52.476;13.316;2023-11-21T15:07:03;19.23;;;12.70;;